createdAt,value
2018-04-17T00:01:03.870Z,87.40
2018-04-17T00:03:32.200Z,87.20
2018-04-17T00:06:00.477Z,87.10
2018-04-17T00:08:28.841Z,87.10
2018-04-17T00:10:57.123Z,86.90
2018-04-17T00:13:25.887Z,86.90
2018-04-17T00:15:54.200Z,86.90
2018-04-17T00:18:22.485Z,86.80
2018-04-17T00:20:50.783Z,86.90
2018-04-17T00:23:19.866Z,86.80
2018-04-17T00:25:48.211Z,86.80
2018-04-17T00:28:16.515Z,86.70
2018-04-17T00:30:44.815Z,86.70
2018-04-17T00:33:13.883Z,86.50
2018-04-17T00:35:42.211Z,86.50
2018-04-17T00:38:10.560Z,86.50
2018-04-17T00:40:39.621Z,86.40
2018-04-17T00:43:07.950Z,86.40
2018-04-17T00:45:36.281Z,86.30
2018-04-17T00:48:04.560Z,86.40
2018-04-17T00:50:33.895Z,86.50
2018-04-17T00:55:59.592Z,86.20
2018-04-17T00:58:27.925Z,86.30
2018-04-17T01:00:57.076Z,86.20
2018-04-17T01:03:25.430Z,86.20
2018-04-17T01:05:54.540Z,86.30
2018-04-17T01:08:22.965Z,86.20
2018-04-17T01:10:51.391Z,86.10
2018-04-17T01:13:19.666Z,86.20
2018-04-17T01:15:47.996Z,86.30
2018-04-17T01:18:16.309Z,86.30
2018-04-17T01:20:44.657Z,86.40
2018-04-17T01:23:12.951Z,86.30
2018-04-17T01:25:42.085Z,86.50
2018-04-17T01:28:10.385Z,86.50
2018-04-17T01:30:38.672Z,86.50
2018-04-17T01:33:07.774Z,86.60
2018-04-17T01:35:36.136Z,87.30
2018-04-17T01:38:04.444Z,86.60
2018-04-17T01:40:32.788Z,86.60
2018-04-17T01:43:01.099Z,86.40
2018-04-17T01:45:29.425Z,86.30
2018-04-17T01:47:57.775Z,85.90
2018-04-17T01:50:26.088Z,86.30
2018-04-17T01:52:54.477Z,86.50
2018-04-17T01:55:22.763Z,86.30
2018-04-17T01:57:51.081Z,86.30
2018-04-17T02:00:20.248Z,86.50
2018-04-17T02:02:48.592Z,86.70
2018-04-17T02:05:16.901Z,86.70
2018-04-17T02:07:45.339Z,86.80
2018-04-17T02:10:14.449Z,86.70
2018-04-17T02:12:42.724Z,86.70
2018-04-17T02:15:11.029Z,86.50
2018-04-17T02:17:39.497Z,86.80
2018-04-17T02:20:07.823Z,86.50
2018-04-17T02:22:36.211Z,86.50
2018-04-17T02:25:05.344Z,86.50
2018-04-17T02:27:33.658Z,86.50
2018-04-17T02:30:01.948Z,86.40
2018-04-17T02:32:30.313Z,86.40
2018-04-17T02:34:58.606Z,86.40
2018-04-17T02:37:26.911Z,86.30
2018-04-17T02:39:55.264Z,86.40
2018-04-17T02:42:23.543Z,86.40
2018-04-17T02:44:51.853Z,86.50
2018-04-17T02:47:20.935Z,86.30
2018-04-17T02:49:49.257Z,86.30
2018-04-17T02:52:17.561Z,86.30
2018-04-17T02:54:45.834Z,86.40
2018-04-17T02:57:14.159Z,86.30
2018-04-17T02:59:42.476Z,86.30
2018-04-17T03:02:10.787Z,86.20
2018-04-17T03:04:39.120Z,86.20
2018-04-17T03:07:07.477Z,86.30
2018-04-17T03:09:35.789Z,86.30
2018-04-17T03:12:04.087Z,86.50
2018-04-17T03:14:32.441Z,86.70
2018-04-17T03:17:00.729Z,86.60
2018-04-17T03:19:29.060Z,86.40
2018-04-17T03:21:58.117Z,86.20
2018-04-17T03:24:26.489Z,86.20
2018-04-17T03:26:54.788Z,86.20
2018-04-17T03:29:23.086Z,86.30
2018-04-17T03:31:51.409Z,86.30
2018-04-17T03:34:19.708Z,86.50
2018-04-17T03:36:48.078Z,86.60
2018-04-17T03:39:16.417Z,86.60
2018-04-17T03:41:45.519Z,86.80
2018-04-17T03:44:14.552Z,86.60
2018-04-17T03:46:42.851Z,86.70
2018-04-17T03:49:11.168Z,86.90
2018-04-17T03:51:40.249Z,87.20
2018-04-17T03:54:08.571Z,87.10
2018-04-17T03:56:36.882Z,87.30
2018-04-17T03:59:05.232Z,87.30
2018-04-17T04:01:33.529Z,87.30
2018-04-17T04:04:01.830Z,87.20
2018-04-17T04:06:30.140Z,87.10
2018-04-17T04:08:58.444Z,87.00
2018-04-17T04:11:26.782Z,87.10
2018-04-17T04:13:55.879Z,87.10
2018-04-17T04:16:37.327Z,87.20
2018-04-17T04:19:17.578Z,87.00
2018-04-17T04:21:57.731Z,87.20
2018-04-17T04:27:25.011Z,87.30
2018-04-17T04:29:53.269Z,88.40
2018-04-17T04:32:21.555Z,87.50
2018-04-17T04:35:09.590Z,87.50
2018-04-17T04:37:37.876Z,87.50
2018-04-17T04:40:06.181Z,87.70
2018-04-17T04:42:34.546Z,87.70
2018-04-17T04:45:02.989Z,88.00
2018-04-17T04:47:32.074Z,87.60
2018-04-17T04:50:01.120Z,87.70
2018-04-17T04:52:29.486Z,87.70
2018-04-17T04:54:57.764Z,87.80
2018-04-17T04:57:26.145Z,87.60
2018-04-17T04:59:54.488Z,87.70
2018-04-17T05:02:22.838Z,87.40
2018-04-17T05:04:51.134Z,87.20
2018-04-17T05:07:20.193Z,87.10
2018-04-17T05:09:48.512Z,87.10
2018-04-17T05:12:17.572Z,87.00
2018-04-17T05:14:46.104Z,87.00
2018-04-17T05:17:14.404Z,87.70
2018-04-17T05:19:42.752Z,87.10
2018-04-17T05:22:14.896Z,87.10
2018-04-17T05:24:43.349Z,87.10
2018-04-17T05:27:11.635Z,86.70
2018-04-17T05:29:40.703Z,86.70
2018-04-17T05:32:09.027Z,86.70
2018-04-17T05:34:38.280Z,86.60
2018-04-17T05:37:06.758Z,86.60
2018-04-17T05:39:35.099Z,86.70
2018-04-17T05:42:04.182Z,86.90
2018-04-17T05:44:32.485Z,87.10
2018-04-17T05:47:00.791Z,86.80
2018-04-17T05:49:29.100Z,86.70
2018-04-17T05:51:57.381Z,86.60
2018-04-17T05:54:25.688Z,86.70
2018-04-17T05:56:53.997Z,86.70
2018-04-17T05:59:23.093Z,86.70
2018-04-17T06:01:51.430Z,86.70
2018-04-17T06:04:19.713Z,86.70
2018-04-17T06:06:48.063Z,86.60
2018-04-17T06:09:16.395Z,86.60
2018-04-17T06:11:45.468Z,87.20
2018-04-17T06:14:13.763Z,86.80
2018-04-17T06:16:42.084Z,87.20
2018-04-17T06:19:10.397Z,86.50
2018-04-17T06:21:38.682Z,86.50
2018-04-17T06:24:07.052Z,86.50
2018-04-17T06:26:35.336Z,86.40
2018-04-17T06:29:03.675Z,86.30
2018-04-17T06:31:31.999Z,86.60
2018-04-17T06:34:00.354Z,86.80
2018-04-17T06:36:28.662Z,86.90
2018-04-17T06:38:56.936Z,86.90
2018-04-17T06:41:25.287Z,86.70
2018-04-17T06:43:53.534Z,86.80
2018-04-17T06:46:21.880Z,87.00
2018-04-17T06:48:50.165Z,87.00
2018-04-17T06:51:18.503Z,87.10
2018-04-17T06:53:46.783Z,86.70
2018-04-17T06:56:15.091Z,86.40
2018-04-17T06:58:44.174Z,86.20
2018-04-17T07:01:12.484Z,86.30
2018-04-17T07:03:41.569Z,86.30
2018-04-17T07:06:09.849Z,86.40
2018-04-17T07:08:38.920Z,86.40
2018-04-17T07:11:07.243Z,86.40
2018-04-17T07:13:36.306Z,86.00
2018-04-17T07:16:04.682Z,86.10
2018-04-17T07:18:32.997Z,86.10
2018-04-17T07:21:01.297Z,86.00
2018-04-17T07:23:29.641Z,85.90
2018-04-17T07:25:59.489Z,85.60
2018-04-17T07:28:28.615Z,85.60
2018-04-17T07:30:56.933Z,84.80
2018-04-17T07:33:26.011Z,84.30
2018-04-17T07:35:54.332Z,84.50
2018-04-17T07:38:22.805Z,84.80
2018-04-17T07:40:51.116Z,84.80
2018-04-17T07:43:19.452Z,84.90
2018-04-17T07:45:48.528Z,85.10
2018-04-17T07:48:28.772Z,85.10
2018-04-17T07:50:57.089Z,85.10
2018-04-17T07:53:26.192Z,84.80
2018-04-17T07:55:55.473Z,84.70
2018-04-17T07:58:24.520Z,84.30
2018-04-17T08:00:52.865Z,85.00
2018-04-17T08:03:21.908Z,84.60
2018-04-17T08:05:50.222Z,84.70
2018-04-17T08:08:19.334Z,84.30
2018-04-17T08:10:48.436Z,84.10
2018-04-17T08:13:16.747Z,84.10
2018-04-17T08:15:45.067Z,84.00
2018-04-17T08:18:13.398Z,84.30
2018-04-17T08:20:41.699Z,83.60
2018-04-17T08:23:10.111Z,83.90
2018-04-17T08:25:39.236Z,84.60
2018-04-17T08:28:07.540Z,83.90
2018-04-17T08:30:35.862Z,83.80
2018-04-17T08:33:04.143Z,83.80
2018-04-17T08:35:33.256Z,83.70
2018-04-17T08:38:01.537Z,83.40
2018-04-17T08:40:30.526Z,83.40
2018-04-17T08:42:59.590Z,83.60
2018-04-17T08:45:27.864Z,83.60
2018-04-17T08:47:56.705Z,83.60
2018-04-17T08:50:24.994Z,82.90
2018-04-17T08:52:53.282Z,82.70
2018-04-17T08:55:22.365Z,82.80
2018-04-17T08:57:50.684Z,82.80
2018-04-17T09:00:19.070Z,82.60
2018-04-17T09:02:47.358Z,82.90
2018-04-17T09:05:15.672Z,82.60
2018-04-17T09:07:43.989Z,82.10
2018-04-17T09:10:12.292Z,81.50
2018-04-17T09:12:40.681Z,81.70
2018-04-17T09:15:08.973Z,82.30
2018-04-17T09:17:38.011Z,82.80
2018-04-17T09:20:06.365Z,82.80
2018-04-17T09:22:34.644Z,82.90
2018-04-17T09:25:03.027Z,82.80
2018-04-17T09:27:31.337Z,82.70
2018-04-17T09:29:59.786Z,82.40
2018-04-17T09:32:28.830Z,82.10
2018-04-17T09:34:57.132Z,82.00
2018-04-17T09:37:26.237Z,81.30
2018-04-17T09:39:54.536Z,81.40
2018-04-17T09:42:22.881Z,81.60
2018-04-17T09:44:51.940Z,81.60
2018-04-17T09:47:20.289Z,81.60
2018-04-17T09:49:48.645Z,81.50
2018-04-17T09:52:17.713Z,81.70
2018-04-17T09:54:46.048Z,81.70
2018-04-17T09:57:14.421Z,82.30
2018-04-17T09:59:42.769Z,82.10
2018-04-17T10:02:11.077Z,81.90
2018-04-17T10:04:40.190Z,81.70
2018-04-17T10:07:08.584Z,81.50
2018-04-17T10:09:36.853Z,81.10
2018-04-17T10:12:05.168Z,80.70
2018-04-17T10:14:33.624Z,79.80
2018-04-17T10:17:01.930Z,79.20
2018-04-17T10:19:30.256Z,78.80
2018-04-17T10:21:58.558Z,78.60
2018-04-17T10:24:26.882Z,77.60
2018-04-17T10:26:55.228Z,77.70
2018-04-17T10:29:23.559Z,77.10
2018-04-17T10:31:52.690Z,76.00
2018-04-17T10:34:20.989Z,75.90
2018-04-17T10:36:49.302Z,74.80
2018-04-17T10:39:18.397Z,74.10
2018-04-17T10:41:48.041Z,73.60
2018-04-17T10:44:16.363Z,73.40
2018-04-17T10:46:44.725Z,73.30
2018-04-17T10:49:13.003Z,73.10
2018-04-17T10:51:41.313Z,73.00
2018-04-17T10:54:09.619Z,73.00
2018-04-17T10:56:37.965Z,72.20
2018-04-17T10:59:06.274Z,71.90
2018-04-17T11:01:34.607Z,72.40
2018-04-17T11:04:02.961Z,71.70
2018-04-17T11:06:31.226Z,70.80
2018-04-17T11:08:59.581Z,69.90
2018-04-17T11:11:28.634Z,67.80
2018-04-17T11:13:57.027Z,67.80
2018-04-17T11:16:26.337Z,68.60
2018-04-17T11:18:54.611Z,67.70
2018-04-17T11:21:24.439Z,65.90
2018-04-17T11:23:52.752Z,65.70
2018-04-17T11:26:21.125Z,65.70
2018-04-17T11:28:49.440Z,65.70
2018-04-17T11:31:17.713Z,65.70
2018-04-17T11:33:46.081Z,66.60
2018-04-17T11:36:14.326Z,66.00
2018-04-17T11:38:42.732Z,64.50
2018-04-17T11:41:11.838Z,63.70
2018-04-17T11:43:40.164Z,63.70
2018-04-17T11:46:08.467Z,63.90
2018-04-17T11:48:36.775Z,63.60
2018-04-17T11:51:05.088Z,63.30
2018-04-17T11:53:33.367Z,64.30
2018-04-17T11:56:01.854Z,63.70
2018-04-17T11:58:30.141Z,62.20
2018-04-17T12:00:58.417Z,61.50
2018-04-17T12:03:27.543Z,60.10
2018-04-17T12:05:55.936Z,60.60
2018-04-17T12:08:24.301Z,59.50
2018-04-17T12:10:52.584Z,59.30
2018-04-17T12:13:20.980Z,60.10
2018-04-17T12:15:49.396Z,59.50
2018-04-17T12:18:17.711Z,59.00
2018-04-17T12:20:46.032Z,58.30
2018-04-17T12:23:14.359Z,57.40
2018-04-17T12:25:43.842Z,55.50
2018-04-17T12:28:12.266Z,55.40
2018-04-17T12:30:40.659Z,54.30
2018-04-17T12:33:09.069Z,54.70
2018-04-17T12:35:37.448Z,54.80
2018-04-17T12:38:05.854Z,55.50
2018-04-17T12:40:34.917Z,54.20
2018-04-17T12:43:03.267Z,54.00
2018-04-17T12:45:31.624Z,54.00
2018-04-17T12:48:00.683Z,54.70
2018-04-17T12:50:29.010Z,54.60
2018-04-17T12:52:57.348Z,53.10
2018-04-17T12:55:25.665Z,51.50
2018-04-17T12:57:53.973Z,50.50
2018-04-17T13:00:22.329Z,50.10
2018-04-17T13:02:50.647Z,50.50
2018-04-17T13:05:18.939Z,49.60
2018-04-17T13:07:47.372Z,48.90
2018-04-17T13:10:16.425Z,47.20
2018-04-17T13:12:45.542Z,45.60
2018-04-17T13:15:14.601Z,44.10
2018-04-17T13:17:43.013Z,43.90
2018-04-17T13:20:11.301Z,42.40
2018-04-17T13:22:40.340Z,40.50
2018-04-17T13:25:08.901Z,40.50
2018-04-17T13:27:37.236Z,40.60
2018-04-17T13:30:05.569Z,40.10
2018-04-17T13:32:34.602Z,39.50
2018-04-17T13:35:02.928Z,38.80
2018-04-17T13:37:31.250Z,38.80
2018-04-17T13:39:59.561Z,38.80
2018-04-17T13:42:27.881Z,38.80
2018-04-17T13:44:56.929Z,38.00
2018-04-17T13:47:26.025Z,37.80
2018-04-17T13:49:55.480Z,37.70
2018-04-17T13:52:23.821Z,37.30
2018-04-17T13:54:52.887Z,36.80
2018-04-17T13:57:21.176Z,36.80
2018-04-17T13:59:49.540Z,36.50
2018-04-17T14:02:17.828Z,36.30
2018-04-17T14:04:46.165Z,36.60
2018-04-17T14:07:14.457Z,36.40
2018-04-17T14:09:42.753Z,35.40
2018-04-17T14:12:11.382Z,34.90
2018-04-17T14:14:42.416Z,35.80
2018-04-17T14:17:12.500Z,36.20
2018-04-17T14:19:41.588Z,36.20
2018-04-17T14:22:09.882Z,36.50
2018-04-17T14:24:38.194Z,37.30
2018-04-17T14:27:07.871Z,37.20
2018-04-17T14:29:36.387Z,37.40
2018-04-17T14:32:06.136Z,36.90
2018-04-17T14:34:35.696Z,36.80
2018-04-17T14:37:05.034Z,36.90
2018-04-17T14:39:36.080Z,36.70
2018-04-17T14:42:04.396Z,36.40
2018-04-17T14:44:34.205Z,35.50
2018-04-17T14:47:02.515Z,35.90
2018-04-17T14:49:31.366Z,35.90
2018-04-17T14:51:59.649Z,36.00
2018-04-17T14:54:28.039Z,35.60
2018-04-17T14:56:56.496Z,35.20
2018-04-17T14:59:25.604Z,34.90
2018-04-17T15:01:54.261Z,34.10
2018-04-17T15:04:22.671Z,33.60
2018-04-17T15:06:51.281Z,33.50
2018-04-17T15:09:20.351Z,33.90
2018-04-17T15:11:48.655Z,33.40
2018-04-17T15:14:17.549Z,33.30
2018-04-17T15:16:45.831Z,32.80
2018-04-17T15:19:14.179Z,33.00
2018-04-17T15:21:42.599Z,33.00
2018-04-17T15:24:10.879Z,33.10
2018-04-17T15:26:39.964Z,32.80
2018-04-17T15:29:08.251Z,33.40
2018-04-17T15:31:37.392Z,33.40
2018-04-17T15:34:07.257Z,33.50
2018-04-17T15:36:35.805Z,33.40
2018-04-17T15:39:04.180Z,33.70
2018-04-17T15:41:32.614Z,33.20
2018-04-17T15:46:41.749Z,32.70
2018-04-17T15:49:10.124Z,32.90
2018-04-17T15:51:38.454Z,33.20
2018-04-17T15:54:07.627Z,32.90
2018-04-17T15:56:36.905Z,33.00
2018-04-17T15:59:05.514Z,32.90
2018-04-17T16:01:34.640Z,32.60
2018-04-17T16:04:02.959Z,32.60
2018-04-17T16:06:31.312Z,33.00
2018-04-17T16:08:59.650Z,32.90
2018-04-17T16:11:28.726Z,32.50
2018-04-17T16:13:57.052Z,32.60
2018-04-17T16:16:25.328Z,32.60
2018-04-17T16:18:53.678Z,32.50
2018-04-17T16:21:22.013Z,32.70
2018-04-17T16:23:50.332Z,32.80
2018-04-17T16:26:18.666Z,32.70
2018-04-17T16:28:47.238Z,32.80
2018-04-17T16:31:15.576Z,32.70
2018-04-17T16:33:43.970Z,32.90
2018-04-17T16:36:13.062Z,33.10
2018-04-17T16:38:41.427Z,33.10
2018-04-17T16:41:09.819Z,33.30
2018-04-17T16:43:38.147Z,33.30
2018-04-17T16:46:06.475Z,33.60
2018-04-17T16:48:35.689Z,34.20
2018-04-17T16:51:04.001Z,34.30
2018-04-17T16:53:32.635Z,34.40
2018-04-17T16:56:01.126Z,34.40
2018-04-17T16:58:29.446Z,34.60
2018-04-17T17:00:57.769Z,34.80
2018-04-17T17:03:26.051Z,34.70
2018-04-17T17:05:54.559Z,34.70
2018-04-17T17:08:23.099Z,34.90
2018-04-17T17:10:51.387Z,35.00
2018-04-17T17:13:19.703Z,35.10
2018-04-17T17:15:48.027Z,35.60
2018-04-17T17:18:16.361Z,36.00
2018-04-17T17:20:44.641Z,36.40
2018-04-17T17:23:12.934Z,36.90
2018-04-17T17:25:41.257Z,37.20
2018-04-17T17:28:09.605Z,37.50
2018-04-17T17:30:37.917Z,37.70
2018-04-17T17:33:06.225Z,38.00
2018-04-17T17:35:34.565Z,38.40
2018-04-17T17:38:02.861Z,38.80
2018-04-17T17:40:31.948Z,39.50
2018-04-17T17:43:00.254Z,39.60
2018-04-17T17:45:28.551Z,40.10
2018-04-17T17:47:57.658Z,40.80
2018-04-17T17:50:25.984Z,40.80
2018-04-17T17:52:56.049Z,41.70
2018-04-17T17:55:24.386Z,42.10
2018-04-17T17:57:53.460Z,42.70
2018-04-17T18:00:21.773Z,42.60
2018-04-17T18:02:51.745Z,43.50
2018-04-17T18:05:20.100Z,43.60
2018-04-17T18:07:48.405Z,44.20
2018-04-17T18:10:16.699Z,44.70
2018-04-17T18:12:45.067Z,45.00
2018-04-17T18:15:13.343Z,45.30
2018-04-17T18:17:41.687Z,45.70
2018-04-17T18:20:09.980Z,46.00
2018-04-17T18:22:38.310Z,46.50
2018-04-17T18:25:07.415Z,47.50
2018-04-17T18:27:36.523Z,47.90
2018-04-17T18:30:04.840Z,48.00
2018-04-17T18:32:33.180Z,48.40
2018-04-17T18:35:01.533Z,48.70
2018-04-17T18:37:30.602Z,49.60
2018-04-17T18:39:58.911Z,49.60
2018-04-17T18:42:27.332Z,49.80
2018-04-17T18:44:55.629Z,50.20
2018-04-17T18:47:24.009Z,50.50
2018-04-17T18:49:52.336Z,50.80
2018-04-17T18:52:21.431Z,51.80
2018-04-17T18:54:50.570Z,52.30
2018-04-17T18:57:19.285Z,52.30
2018-04-17T18:59:48.897Z,52.90
2018-04-17T19:02:17.230Z,53.00
2018-04-17T19:04:45.599Z,53.30
2018-04-17T19:07:13.955Z,53.70
2018-04-17T19:09:43.245Z,54.20
2018-04-17T19:12:11.668Z,54.10
2018-04-17T19:14:40.929Z,54.30
2018-04-17T19:17:09.682Z,54.60
2018-04-17T19:19:38.070Z,54.80
2018-04-17T19:22:06.558Z,55.00
2018-04-17T19:24:34.953Z,55.30
2018-04-17T19:27:03.308Z,55.50
2018-04-17T19:29:31.760Z,55.70
2018-04-17T19:32:00.083Z,55.90
2018-04-17T19:34:28.498Z,56.00
2018-04-17T19:36:56.885Z,56.20
2018-04-17T19:39:25.955Z,56.40
2018-04-17T19:41:54.318Z,56.50
2018-04-17T19:44:22.676Z,56.50
2018-04-17T19:46:51.059Z,56.80
2018-04-17T19:49:19.397Z,56.90
2018-04-17T19:51:48.478Z,57.20
2018-04-17T19:54:16.801Z,57.30
2018-04-17T19:56:45.108Z,57.40
2018-04-17T19:59:13.429Z,57.50
2018-04-17T20:01:41.753Z,57.60
2018-04-17T20:04:10.343Z,57.30
2018-04-17T20:06:38.747Z,58.00
2018-04-17T20:09:07.070Z,58.20
2018-04-17T20:11:35.461Z,58.30
2018-04-17T20:14:03.936Z,58.30
2018-04-17T20:16:32.262Z,58.50
2018-04-17T20:19:00.667Z,58.50
2018-04-17T20:21:29.043Z,58.60
2018-04-17T20:23:57.355Z,58.80
2018-04-17T20:26:25.784Z,58.90
2018-04-17T20:28:54.043Z,59.00
2018-04-17T20:31:22.455Z,59.10
2018-04-17T20:33:50.755Z,59.20
2018-04-17T20:36:19.806Z,59.60
2018-04-17T20:38:48.162Z,59.70
2018-04-17T20:41:16.627Z,59.70
2018-04-17T20:48:51.693Z,60.30
2018-04-17T20:51:20.026Z,60.40
2018-04-17T20:53:49.703Z,60.40
2018-04-17T20:56:18.024Z,60.40
2018-04-17T21:01:18.830Z,61.00
2018-04-17T21:03:47.135Z,61.10
2018-04-17T21:13:59.423Z,61.60
2018-04-17T21:16:28.554Z,61.70
2018-04-17T21:18:56.854Z,62.00
2018-04-17T21:23:58.563Z,62.20
2018-04-17T21:26:26.907Z,62.30
2018-04-17T21:28:55.227Z,62.50
2018-04-17T21:33:57.805Z,62.80
2018-04-17T21:36:26.110Z,62.80
2018-04-17T21:38:55.127Z,63.00
2018-04-17T21:41:23.785Z,63.70
2018-04-17T21:43:52.094Z,63.40
2018-04-17T21:46:20.418Z,63.50
2018-04-17T21:48:49.983Z,63.60
2018-04-17T21:51:18.441Z,63.80
2018-04-17T21:53:46.788Z,64.00
2018-04-17T21:56:15.116Z,64.00
2018-04-17T22:03:48.442Z,64.40
2018-04-17T22:06:16.746Z,64.60
2018-04-17T22:08:45.040Z,64.80
2018-04-17T22:11:13.362Z,64.80
2018-04-17T22:16:14.837Z,65.10
2018-04-17T22:18:43.745Z,65.30
2018-04-17T22:21:12.389Z,65.40
2018-04-17T22:23:40.716Z,65.50
2018-04-17T22:26:11.100Z,65.50
2018-04-17T22:36:21.945Z,65.60
2018-04-17T23:47:08.497Z,67.30
2018-04-17T23:49:36.798Z,67.60
2018-04-17T23:52:05.105Z,67.70
2018-04-17T23:54:34.172Z,67.90
2018-04-17T23:57:02.442Z,67.80
2018-04-17T23:59:30.718Z,67.90
